createdAt,value
2018-10-19T00:01:48.601Z,30.00
2018-10-19T00:04:16.991Z,31.00
2018-10-19T00:06:45.244Z,31.17
2018-10-19T00:09:13.509Z,33.38
2018-10-19T00:11:41.812Z,36.55
2018-10-19T00:14:10.092Z,38.15
2018-10-19T00:16:38.581Z,39.53
2018-10-19T00:19:07.259Z,40.23
2018-10-19T00:21:36.016Z,37.33
2018-10-19T00:24:04.831Z,38.40
2018-10-19T00:26:32.792Z,42.25
2018-10-19T00:29:01.459Z,38.70
2018-10-19T00:31:29.948Z,38.90
2018-10-19T00:33:58.423Z,39.23
2018-10-19T00:36:26.627Z,40.75
2018-10-19T00:38:54.913Z,41.13
2018-10-19T00:41:23.812Z,39.30
2018-10-19T00:43:52.158Z,40.52
2018-10-19T00:46:20.724Z,39.33
2018-10-19T00:48:49.126Z,41.75
2018-10-19T00:51:17.763Z,41.63
2018-10-19T00:53:46.949Z,40.20
2018-10-19T00:56:15.392Z,42.08
2018-10-19T00:58:44.154Z,43.92
2018-10-19T01:01:12.792Z,42.73
2018-10-19T01:03:41.140Z,43.48
2018-10-19T01:06:09.463Z,45.50
2018-10-19T01:08:37.999Z,41.25
2018-10-19T01:11:06.668Z,43.33
2018-10-19T01:13:35.273Z,50.60
2018-10-19T01:16:04.264Z,43.38
2018-10-19T01:18:32.953Z,40.25
2018-10-19T01:21:01.696Z,40.75
2018-10-19T01:23:30.421Z,41.85
2018-10-19T01:25:59.001Z,40.28
2018-10-19T01:28:27.384Z,42.90
2018-10-19T01:30:56.093Z,42.88
2018-10-19T01:33:25.144Z,43.68
2018-10-19T01:35:53.508Z,39.92
2018-10-19T01:38:21.710Z,40.90
2018-10-19T01:40:49.995Z,42.65
2018-10-19T01:43:18.083Z,40.95
2018-10-19T01:45:51.855Z,43.90
2018-10-19T01:48:20.628Z,41.88
2018-10-19T01:50:49.060Z,40.88
2018-10-19T01:53:17.875Z,40.70
2018-10-19T01:55:46.432Z,42.40
2018-10-19T01:58:15.378Z,44.45
2018-10-19T02:00:43.963Z,40.75
2018-10-19T02:03:13.339Z,40.40
2018-10-19T02:05:41.657Z,43.45
2018-10-19T02:08:10.587Z,41.85
2018-10-19T02:10:39.219Z,40.78
2018-10-19T02:13:08.813Z,37.53
2018-10-19T02:15:37.564Z,37.33
2018-10-19T02:18:06.080Z,37.13
2018-10-19T02:20:34.702Z,39.10
2018-10-19T02:23:03.325Z,40.88
2018-10-19T02:25:31.664Z,46.18
2018-10-19T02:27:59.830Z,39.65
2018-10-19T02:30:28.152Z,38.95
2018-10-19T02:32:56.606Z,37.38
2018-10-19T02:35:24.862Z,36.08
2018-10-19T02:37:53.244Z,40.98
2018-10-19T02:40:21.422Z,35.35
2018-10-19T02:42:49.760Z,35.13
2018-10-19T02:45:18.254Z,41.60
2018-10-19T02:47:46.555Z,32.35
2018-10-19T02:50:15.872Z,30.57
2018-10-19T02:52:44.136Z,32.73
2018-10-19T02:55:12.681Z,28.47
2018-10-19T02:57:40.892Z,31.68
2018-10-19T03:00:10.834Z,28.57
2018-10-19T03:02:39.605Z,28.30
2018-10-19T03:05:08.581Z,29.02
2018-10-19T03:07:37.336Z,28.00
2018-10-19T03:10:05.979Z,31.77
2018-10-19T03:12:34.632Z,27.73
2018-10-19T03:15:03.185Z,29.42
2018-10-19T03:17:31.708Z,33.23
2018-10-19T03:20:00.336Z,31.55
2018-10-19T03:22:28.767Z,28.95
2018-10-19T03:24:56.925Z,34.80
2018-10-19T03:27:25.555Z,35.43
2018-10-19T03:29:54.213Z,32.15
2018-10-19T03:32:22.870Z,26.97
2018-10-19T03:34:52.516Z,31.90
2018-10-19T03:37:20.677Z,30.48
2018-10-19T03:39:48.747Z,34.53
2018-10-19T03:42:17.258Z,36.90
2018-10-19T03:44:45.651Z,34.20
2018-10-19T03:47:14.487Z,29.98
2018-10-19T03:49:43.388Z,31.35
2018-10-19T03:52:11.693Z,32.83
2018-10-19T03:54:40.040Z,33.20
2018-10-19T03:57:08.542Z,34.85
2018-10-19T03:59:37.200Z,33.60
2018-10-19T04:02:05.626Z,32.98
2018-10-19T04:04:33.891Z,33.98
2018-10-19T04:07:03.876Z,33.63
2018-10-19T04:09:32.540Z,34.15
2018-10-19T04:12:00.940Z,44.53
2018-10-19T04:14:30.064Z,32.15
2018-10-19T04:16:58.455Z,33.98
2018-10-19T04:19:26.996Z,38.78
2018-10-19T04:21:55.754Z,44.45
2018-10-19T04:24:24.378Z,37.48
2018-10-19T04:26:52.862Z,34.90
2018-10-19T04:29:21.866Z,30.00
2018-10-19T04:31:50.728Z,32.73
2018-10-19T04:34:19.088Z,30.77
2018-10-19T04:36:47.500Z,32.83
2018-10-19T04:39:16.165Z,31.30
2018-10-19T04:41:44.710Z,36.23
2018-10-19T04:44:12.723Z,37.45
2018-10-19T04:46:41.388Z,40.75
2018-10-19T04:49:09.891Z,39.08
2018-10-19T04:51:38.271Z,32.83
2018-10-19T04:54:06.761Z,32.23
2018-10-19T04:56:36.297Z,39.13
2018-10-19T04:59:04.872Z,33.13
2018-10-19T05:01:33.033Z,34.75
2018-10-19T05:04:01.494Z,34.05
2018-10-19T05:06:30.347Z,37.58
2018-10-19T05:08:58.869Z,36.42
2018-10-19T05:11:27.561Z,45.58
2018-10-19T05:13:56.307Z,45.08
2018-10-19T05:16:24.493Z,48.30
2018-10-19T05:18:52.872Z,45.10
2018-10-19T05:21:21.444Z,39.48
2018-10-19T05:23:49.632Z,36.58
2018-10-19T05:26:18.070Z,31.50
2018-10-19T05:28:46.476Z,35.03
2018-10-19T05:31:14.689Z,42.90
2018-10-19T05:33:43.261Z,37.38
2018-10-19T05:36:11.608Z,44.70
2018-10-19T05:38:39.924Z,39.85
2018-10-19T05:41:08.472Z,40.10
2018-10-19T05:43:37.113Z,36.65
2018-10-19T05:46:05.856Z,35.65
2018-10-19T05:48:34.013Z,34.95
2018-10-19T05:51:02.564Z,42.15
2018-10-19T05:53:31.181Z,34.95
2018-10-19T05:55:59.348Z,39.03
2018-10-19T05:58:28.087Z,29.30
2018-10-19T06:00:56.236Z,30.88
2018-10-19T06:03:24.742Z,44.85
2018-10-19T06:05:52.768Z,40.25
2018-10-19T06:08:21.201Z,45.88
2018-10-19T06:10:50.559Z,39.53
2018-10-19T06:13:18.851Z,37.58
2018-10-19T06:15:48.464Z,42.43
2018-10-19T06:18:16.853Z,37.30
2018-10-19T06:20:45.544Z,38.70
2018-10-19T06:23:14.114Z,35.83
2018-10-19T06:25:42.439Z,48.55
2018-10-19T06:28:10.972Z,41.73
2018-10-19T06:30:39.676Z,43.25
2018-10-19T06:33:08.263Z,42.90
2018-10-19T06:35:37.876Z,49.58
2018-10-19T06:38:06.488Z,35.17
2018-10-19T06:40:34.907Z,34.73
2018-10-19T06:43:03.300Z,31.43
2018-10-19T06:45:31.697Z,58.10
2018-10-19T06:48:00.256Z,49.00
2018-10-19T06:50:28.489Z,48.33
2018-10-19T06:52:57.730Z,35.93
2018-10-19T06:55:25.803Z,30.17
2018-10-19T06:57:54.180Z,30.33
2018-10-19T07:00:22.656Z,28.97
2018-10-19T07:02:51.319Z,29.70
2018-10-19T07:05:19.616Z,33.47
2018-10-19T07:07:48.949Z,38.23
2018-10-19T07:10:17.308Z,26.47
2018-10-19T07:12:46.025Z,29.13
2018-10-19T07:15:14.531Z,27.03
2018-10-19T07:17:43.147Z,29.70
2018-10-19T07:20:11.312Z,29.13
2018-10-19T07:22:40.093Z,29.97
2018-10-19T07:25:08.493Z,29.20
2018-10-19T07:27:37.006Z,30.57
2018-10-19T07:30:05.688Z,27.67
2018-10-19T07:32:33.935Z,29.63
2018-10-19T07:35:02.343Z,28.40
2018-10-19T07:37:30.683Z,31.40
2018-10-19T07:39:58.823Z,72.60
2018-10-19T07:42:27.009Z,29.77
2018-10-19T07:44:54.828Z,28.77
2018-10-19T07:47:23.134Z,48.50
2018-10-19T07:49:50.952Z,34.60
2018-10-19T07:52:19.161Z,28.87
2018-10-19T07:54:47.188Z,28.17
2018-10-19T07:57:15.272Z,34.13
2018-10-19T07:59:43.356Z,29.27
2018-10-19T08:02:11.899Z,30.70
2018-10-19T08:04:40.166Z,25.87
2018-10-19T08:07:08.568Z,30.00
2018-10-19T08:09:36.843Z,31.77
2018-10-19T08:12:05.240Z,30.53
2018-10-19T08:14:33.705Z,30.63
2018-10-19T08:17:02.381Z,32.40
2018-10-19T08:19:30.708Z,32.07
2018-10-19T08:21:58.728Z,32.43
2018-10-19T08:24:26.811Z,29.07
2018-10-19T08:26:54.876Z,26.90
2018-10-19T08:29:22.921Z,27.60
2018-10-19T08:31:51.034Z,28.43
2018-10-19T08:34:19.084Z,36.33
2018-10-19T08:36:47.171Z,31.50
2018-10-19T08:39:15.234Z,31.47
2018-10-19T08:41:43.506Z,29.60
2018-10-19T08:44:11.397Z,28.27
2018-10-19T08:46:40.644Z,32.20
2018-10-19T08:49:10.359Z,23.93
2018-10-19T08:51:38.935Z,24.03
2018-10-19T08:54:07.480Z,25.30
2018-10-19T08:56:35.728Z,23.67
2018-10-19T08:59:03.900Z,25.90
2018-10-19T09:01:32.188Z,23.37
2018-10-19T09:04:00.166Z,23.53
2018-10-19T09:06:28.420Z,26.87
2018-10-19T09:08:56.760Z,23.70
2018-10-19T09:11:25.013Z,22.50
2018-10-19T09:13:53.392Z,22.67
2018-10-19T09:16:21.705Z,23.33
2018-10-19T09:18:50.079Z,24.73
2018-10-19T09:21:18.572Z,22.83
2018-10-19T09:23:46.751Z,23.47
2018-10-19T09:26:14.745Z,20.90
2018-10-19T09:28:42.822Z,22.30
2018-10-19T09:31:10.791Z,21.27
2018-10-19T09:33:38.740Z,25.47
2018-10-19T09:36:07.718Z,23.40
2018-10-19T09:38:35.704Z,22.23
2018-10-19T09:41:03.769Z,22.53
2018-10-19T09:43:31.856Z,20.30
2018-10-19T09:45:59.924Z,23.03
2018-10-19T09:48:28.079Z,24.20
2018-10-19T09:50:56.100Z,29.17
2018-10-19T09:53:24.128Z,22.97
2018-10-19T09:55:52.106Z,17.40
2018-10-19T09:58:20.279Z,20.17
2018-10-19T10:00:53.995Z,22.97
2018-10-19T10:03:21.960Z,19.93
2018-10-19T10:05:50.015Z,22.03
2018-10-19T10:08:17.995Z,17.03
2018-10-19T10:10:45.980Z,25.80
2018-10-19T10:13:14.845Z,24.30
2018-10-19T10:15:43.045Z,24.40
2018-10-19T10:18:10.987Z,17.43
2018-10-19T10:20:39.084Z,32.10
2018-10-19T10:23:07.148Z,16.70
2018-10-19T10:25:35.224Z,21.40
2018-10-19T10:28:03.305Z,17.53
2018-10-19T10:30:31.412Z,22.03
2018-10-19T10:32:59.415Z,25.43
2018-10-19T10:35:27.483Z,20.27
2018-10-19T10:37:55.576Z,17.80
2018-10-19T10:40:23.634Z,25.60
2018-10-19T10:42:51.696Z,22.20
2018-10-19T10:45:19.759Z,27.87
2018-10-19T10:47:47.912Z,22.87
2018-10-19T10:50:16.743Z,18.60
2018-10-19T10:52:44.900Z,18.80
2018-10-19T10:55:12.978Z,24.00
2018-10-19T10:57:41.054Z,18.97
2018-10-19T11:00:09.452Z,19.50
2018-10-19T11:02:37.657Z,20.87
2018-10-19T11:05:06.386Z,17.93
2018-10-19T11:07:34.778Z,18.53
2018-10-19T11:10:02.763Z,18.73
2018-10-19T11:12:31.080Z,16.47
2018-10-19T11:15:00.351Z,17.20
2018-10-19T11:17:28.286Z,20.60
2018-10-19T11:19:56.537Z,17.70
2018-10-19T11:22:24.536Z,17.63
2018-10-19T11:24:54.970Z,21.23
2018-10-19T11:27:23.124Z,16.80
2018-10-19T11:29:51.342Z,14.00
2018-10-19T11:32:19.167Z,17.50
2018-10-19T11:34:47.948Z,16.53
2018-10-19T11:37:16.248Z,17.67
2018-10-19T11:39:55.015Z,15.60
2018-10-19T11:42:23.292Z,15.80
2018-10-19T11:44:51.237Z,19.77
2018-10-19T11:47:19.276Z,17.77
2018-10-19T11:49:47.500Z,15.33
2018-10-19T11:52:15.532Z,14.13
2018-10-19T11:54:43.659Z,18.27
2018-10-19T11:57:11.662Z,15.50
2018-10-19T11:59:39.741Z,14.23
2018-10-19T12:02:08.596Z,12.77
2018-10-19T12:04:36.788Z,13.03
2018-10-19T12:07:05.185Z,17.57
2018-10-19T12:09:33.240Z,12.80
2018-10-19T12:12:01.345Z,10.77
2018-10-19T12:14:29.404Z,9.53
2018-10-19T12:16:58.378Z,10.60
2018-10-19T12:19:26.635Z,14.80
2018-10-19T12:21:54.840Z,10.83
2018-10-19T12:24:22.922Z,13.20
2018-10-19T12:26:51.276Z,13.00
2018-10-19T12:29:19.320Z,11.70
2018-10-19T12:31:47.437Z,12.23
2018-10-19T12:34:15.499Z,16.57
2018-10-19T12:36:43.624Z,11.10
2018-10-19T12:39:11.662Z,13.20
2018-10-19T12:41:39.696Z,10.10
2018-10-19T12:44:07.788Z,10.27
2018-10-19T12:46:48.351Z,10.70
2018-10-19T12:49:19.013Z,12.20
2018-10-19T12:51:47.007Z,8.90
2018-10-19T12:54:15.054Z,9.30
2018-10-19T12:56:43.207Z,11.73
2018-10-19T12:59:11.336Z,12.57
2018-10-19T13:01:39.416Z,10.30
2018-10-19T13:04:07.387Z,13.67
2018-10-19T13:06:35.504Z,12.13
2018-10-19T13:09:06.134Z,14.63
2018-10-19T13:11:34.140Z,11.80
2018-10-19T13:14:02.159Z,14.30
2018-10-19T13:16:30.106Z,16.20
2018-10-19T13:18:58.113Z,17.10
2018-10-19T13:21:25.948Z,13.90
2018-10-19T13:23:54.190Z,13.20
2018-10-19T13:26:22.233Z,15.33
2018-10-19T13:28:50.251Z,12.93
2018-10-19T13:31:18.361Z,16.17
2018-10-19T13:33:46.391Z,16.00
2018-10-19T13:36:14.928Z,17.90
2018-10-19T13:38:43.255Z,13.47
2018-10-19T13:41:11.932Z,17.40
2018-10-19T13:43:40.504Z,19.20
2018-10-19T13:46:08.639Z,17.17
2018-10-19T13:48:36.732Z,15.20
2018-10-19T13:51:04.842Z,15.73
2018-10-19T13:53:32.840Z,14.73
2018-10-19T13:56:00.896Z,16.40
2018-10-19T13:58:29.017Z,16.03
2018-10-19T14:00:57.095Z,18.70
2018-10-19T14:03:25.052Z,15.40
2018-10-19T14:05:53.055Z,14.57
2018-10-19T14:08:21.239Z,15.43
2018-10-19T14:10:49.317Z,15.30
2018-10-19T14:13:17.451Z,15.70
2018-10-19T14:15:45.520Z,16.40
2018-10-19T14:18:13.415Z,16.90
2018-10-19T14:20:41.616Z,16.43
2018-10-19T14:23:09.712Z,14.60
2018-10-19T14:25:37.808Z,15.50
2018-10-19T14:28:05.906Z,15.47
2018-10-19T14:30:34.200Z,16.83
2018-10-19T14:33:03.264Z,18.33
2018-10-19T14:35:31.241Z,17.30
2018-10-19T14:37:59.428Z,20.70
2018-10-19T14:40:27.709Z,17.40
2018-10-19T14:42:56.276Z,17.07
2018-10-19T14:45:24.468Z,18.10
2018-10-19T14:47:52.431Z,17.37
2018-10-19T14:50:20.664Z,16.40
2018-10-19T14:52:48.665Z,18.07
2018-10-19T14:55:17.879Z,18.07
2018-10-19T14:57:46.052Z,16.90
2018-10-19T15:00:15.100Z,18.87
2018-10-19T15:02:43.235Z,20.17
2018-10-19T15:05:12.855Z,18.97
2018-10-19T15:07:41.128Z,21.67
2018-10-19T15:10:11.745Z,18.53
2018-10-19T15:12:40.059Z,22.50
2018-10-19T15:15:09.429Z,24.60
2018-10-19T15:17:37.671Z,18.27
2018-10-19T15:20:05.944Z,18.00
2018-10-19T15:22:34.812Z,19.53
2018-10-19T15:25:02.825Z,20.40
2018-10-19T15:27:30.947Z,19.70
2018-10-19T15:29:59.020Z,20.40
2018-10-19T15:32:27.027Z,19.37
2018-10-19T15:34:55.896Z,19.90
2018-10-19T15:37:24.554Z,21.20
2018-10-19T15:39:52.444Z,26.73
2018-10-19T15:42:20.542Z,32.40
2018-10-19T15:44:48.620Z,23.67
2018-10-19T15:47:16.712Z,22.40
2018-10-19T15:49:44.762Z,23.07
2018-10-19T15:52:12.888Z,28.90
2018-10-19T15:54:40.891Z,27.33
2018-10-19T15:57:09.018Z,32.28
2018-10-19T15:59:36.955Z,22.22
2018-10-19T16:02:05.208Z,23.18
2018-10-19T16:04:33.559Z,22.90
2018-10-19T16:07:01.680Z,22.25
2018-10-19T16:09:30.340Z,24.27
2018-10-19T16:11:58.650Z,22.82
2018-10-19T16:14:26.585Z,30.72
2018-10-19T16:16:54.423Z,20.43
2018-10-19T16:19:22.934Z,20.25
2018-10-19T16:21:52.439Z,22.45
2018-10-19T16:24:20.824Z,23.70
2018-10-19T16:26:51.343Z,22.67
2018-10-19T16:29:19.908Z,31.42
2018-10-19T16:31:48.504Z,22.55
2018-10-19T16:34:16.764Z,35.13
2018-10-19T16:36:45.184Z,21.73
2018-10-19T16:39:13.460Z,21.30
2018-10-19T16:41:42.088Z,21.40
2018-10-19T16:44:10.655Z,24.85
2018-10-19T16:46:39.532Z,24.05
2018-10-19T16:49:07.993Z,24.52
2018-10-19T16:51:36.051Z,22.75
2018-10-19T16:54:04.253Z,23.60
2018-10-19T16:56:32.499Z,23.75
2018-10-19T16:59:00.483Z,24.32
2018-10-19T17:01:29.132Z,23.42
2018-10-19T17:03:57.368Z,22.75
2018-10-19T17:06:25.473Z,24.55
2018-10-19T17:08:53.898Z,23.92
2018-10-19T17:11:22.167Z,23.47
2018-10-19T17:13:51.124Z,23.25
2018-10-19T17:16:19.285Z,25.68
2018-10-19T17:18:47.396Z,29.12
2018-10-19T17:21:15.818Z,25.08
2018-10-19T17:23:44.093Z,25.45
2018-10-19T17:26:12.156Z,24.52
2018-10-19T17:28:40.091Z,23.18
2018-10-19T17:31:07.991Z,25.77
2018-10-19T17:33:36.158Z,26.55
2018-10-19T17:36:05.435Z,26.10
2018-10-19T17:38:33.758Z,25.97
2018-10-19T17:41:01.814Z,26.45
2018-10-19T17:43:29.828Z,24.47
2018-10-19T17:45:57.826Z,27.48
2018-10-19T17:48:26.060Z,26.02
2018-10-19T17:50:54.122Z,24.67
2018-10-19T17:53:22.138Z,26.17
2018-10-19T17:55:50.111Z,27.48
2018-10-19T17:58:17.880Z,29.98
2018-10-19T18:00:46.150Z,27.10
2018-10-19T18:03:14.483Z,27.45
2018-10-19T18:05:42.640Z,27.67
2018-10-19T18:08:10.876Z,29.45
2018-10-19T18:10:38.948Z,28.90
2018-10-19T18:13:07.101Z,28.27
2018-10-19T18:15:36.363Z,27.35
2018-10-19T18:18:04.520Z,24.87
2018-10-19T18:20:32.769Z,25.43
2018-10-19T18:23:01.014Z,25.35
2018-10-19T18:25:28.986Z,25.10
2018-10-19T18:27:57.704Z,25.12
2018-10-19T18:30:25.856Z,24.35
2018-10-19T18:32:54.375Z,30.23
2018-10-19T18:35:22.650Z,29.02
2018-10-19T18:37:51.376Z,26.68
2018-10-19T18:40:19.992Z,27.75
2018-10-19T18:42:48.649Z,26.97
2018-10-19T18:45:17.259Z,31.90
2018-10-19T18:47:46.039Z,25.12
2018-10-19T18:50:14.782Z,28.50
2018-10-19T18:52:43.215Z,26.65
2018-10-19T18:55:11.691Z,30.17
2018-10-19T18:57:40.071Z,26.75
2018-10-19T19:00:10.211Z,28.67
2018-10-19T19:02:38.712Z,27.17
2018-10-19T19:05:07.304Z,27.20
2018-10-19T19:07:35.811Z,26.70
2018-10-19T19:10:09.570Z,28.95
2018-10-19T19:12:37.984Z,29.18
2018-10-19T19:15:06.780Z,28.05
2018-10-19T19:17:34.987Z,31.33
2018-10-19T19:20:08.499Z,28.42
2018-10-19T19:22:36.833Z,30.60
2018-10-19T19:25:10.795Z,30.02
2018-10-19T19:27:38.957Z,30.25
2018-10-19T19:30:07.408Z,30.92
2018-10-19T19:32:35.477Z,33.08
2018-10-19T19:35:03.490Z,33.25
2018-10-19T19:37:31.576Z,31.57
2018-10-19T19:39:59.627Z,28.25
2018-10-19T19:42:33.052Z,33.88
2018-10-19T19:45:01.302Z,27.77
2018-10-19T19:47:34.782Z,28.35
2018-10-19T19:50:04.466Z,28.85
2018-10-19T19:52:32.859Z,27.42
2018-10-19T19:55:01.253Z,29.15
2018-10-19T19:57:29.311Z,26.52
2018-10-19T19:59:57.460Z,27.52
2018-10-19T20:02:25.460Z,27.80
2018-10-19T20:04:53.583Z,30.80
2018-10-19T20:07:21.616Z,29.07
2018-10-19T20:09:49.680Z,25.45
2018-10-19T20:12:17.911Z,27.73
2018-10-19T20:14:46.124Z,46.98
2018-10-19T20:17:14.269Z,41.28
2018-10-19T20:19:42.296Z,36.65
2018-10-19T20:22:13.611Z,31.05
2018-10-19T20:24:41.860Z,42.90
2018-10-19T20:27:09.852Z,33.90
2018-10-19T20:29:37.923Z,36.10
2018-10-19T20:32:06.146Z,39.53
2018-10-19T20:34:34.477Z,37.95
2018-10-19T20:37:02.519Z,38.92
2018-10-19T20:39:30.515Z,27.27
2018-10-19T20:41:58.996Z,26.42
2018-10-19T20:44:29.013Z,26.12
2018-10-19T20:46:56.788Z,28.02
2018-10-19T20:49:25.028Z,26.50
2018-10-19T20:51:53.031Z,25.85
2018-10-19T20:54:21.107Z,24.40
2018-10-19T20:56:49.196Z,25.00
2018-10-19T20:59:17.243Z,25.32
2018-10-19T21:01:45.364Z,26.20
2018-10-19T21:04:13.275Z,28.62
2018-10-19T21:06:41.461Z,26.87
2018-10-19T21:09:10.680Z,27.60
2018-10-19T21:11:39.303Z,25.68
2018-10-19T21:14:07.855Z,31.27
2018-10-19T21:16:35.859Z,27.15
2018-10-19T21:19:04.261Z,27.22
2018-10-19T21:21:32.344Z,28.95
2018-10-19T21:24:00.436Z,27.20
2018-10-19T21:26:28.492Z,35.20
2018-10-19T21:28:56.676Z,30.25
2018-10-19T21:31:24.616Z,34.45
2018-10-19T21:33:52.719Z,38.65
2018-10-19T21:36:20.846Z,38.45
2018-10-19T21:38:48.767Z,37.70
2018-10-19T21:41:16.893Z,37.75
2018-10-19T21:43:44.976Z,36.10
2018-10-19T21:46:13.568Z,36.05
2018-10-19T21:48:42.056Z,30.72
2018-10-19T21:51:10.423Z,31.65
2018-10-19T21:53:38.955Z,31.30
2018-10-19T21:56:08.053Z,31.00
2018-10-19T21:58:36.884Z,29.75
2018-10-19T22:01:05.230Z,29.02
2018-10-19T22:03:33.652Z,28.62
2018-10-19T22:06:02.382Z,29.27
2018-10-19T22:08:31.154Z,28.95
2018-10-19T22:10:59.784Z,29.75
2018-10-19T22:13:28.278Z,30.30
2018-10-19T22:15:56.731Z,30.12
2018-10-19T22:18:25.208Z,32.33
2018-10-19T22:20:53.725Z,32.78
2018-10-19T22:23:22.025Z,33.40
2018-10-19T22:25:50.519Z,33.42
2018-10-19T22:28:18.996Z,30.90
2018-10-19T22:30:47.628Z,29.57
2018-10-19T22:33:16.640Z,28.90
2018-10-19T22:35:45.024Z,27.82
2018-10-19T22:38:13.627Z,29.42
2018-10-19T22:40:42.087Z,28.77
2018-10-19T22:43:12.503Z,28.07
2018-10-19T22:45:40.992Z,30.00
2018-10-19T22:48:09.556Z,28.62
2018-10-19T22:50:37.963Z,30.30
2018-10-19T22:53:10.083Z,29.48
2018-10-19T22:55:38.568Z,30.35
2018-10-19T22:58:08.450Z,31.07
2018-10-19T23:00:37.025Z,30.02
2018-10-19T23:03:06.732Z,28.65
2018-10-19T23:05:35.566Z,31.07
2018-10-19T23:08:04.191Z,29.72
2018-10-19T23:10:32.688Z,31.95
2018-10-19T23:13:01.848Z,30.40
2018-10-19T23:15:30.356Z,31.82
2018-10-19T23:17:58.703Z,31.40
2018-10-19T23:20:27.169Z,31.52
2018-10-19T23:22:55.459Z,31.17
2018-10-19T23:25:28.419Z,32.58
2018-10-19T23:27:56.673Z,33.70
2018-10-19T23:30:25.342Z,31.82
2018-10-19T23:32:53.663Z,32.15
2018-10-19T23:35:21.958Z,33.63
2018-10-19T23:37:50.458Z,32.90
2018-10-19T23:40:19.192Z,31.20
2018-10-19T23:42:47.417Z,32.55
2018-10-19T23:45:18.112Z,31.68
2018-10-19T23:47:46.636Z,32.17
2018-10-19T23:50:15.132Z,35.03
2018-10-19T23:52:43.715Z,31.93
2018-10-19T23:55:12.773Z,32.13
2018-10-19T23:57:41.243Z,31.97
